Time;durP1;ratioP1;P1;durP2;ratioP2;P2;SDS_P1;SDS_P2;PMS_P1;PMS_P2;Temp;Humidity;BMP_temperature;BMP_pressure;BME280_temperature;BME280_humidity;BME280_pressure;Samples;Min_cycle;Max_cycle;Signal;HPM_P1;HPM_P2
2022/08/21 00:00:17;;;;;;;19.10;4.13;;;17.10;99.90;;;16.09;100.00;101122.97;4943077;28;20187;-80
2022/08/21 00:02:58;;;;;;;18.60;3.67;;;17.00;99.90;;;16.08;100.00;101119.47;4976177;28;20042;-81
2022/08/21 00:05:26;;;;;;;16.48;3.75;;;17.00;99.90;;;16.03;100.00;101118.06;4969002;28;20037;-81
2022/08/21 00:08:01;;;;;;;9.52;3.30;;;17.00;99.90;;;15.97;100.00;101117.50;5011576;28;20032;-81
2022/08/21 00:10:27;;;;;;;11.25;3.72;;;17.00;99.90;;;15.93;100.00;101110.66;4999219;28;20064;-80
2022/08/21 00:12:53;;;;;;;17.38;4.18;;;16.90;99.90;;;15.90;100.00;101110.88;4965355;28;20038;-81
2022/08/21 00:15:29;;;;;;;13.10;3.78;;;16.80;99.90;;;15.85;100.00;101104.97;4991386;28;20375;-81
2022/08/21 00:17:56;;;;;;;17.17;3.80;;;16.80;99.90;;;15.82;100.00;101107.84;4988086;28;20358;-81
2022/08/21 00:20:23;;;;;;;13.57;3.85;;;16.80;99.90;;;15.77;100.00;101109.94;4952647;28;20033;-81
2022/08/21 00:22:58;;;;;;;19.98;4.22;;;16.80;99.90;;;15.71;100.00;101111.16;4958788;28;20044;-80
2022/08/21 00:25:24;;;;;;;18.65;3.35;;;16.70;99.90;;;15.64;100.00;101107.16;4981842;28;20037;-80
2022/08/21 00:27:50;;;;;;;18.40;4.05;;;16.70;99.90;;;15.58;100.00;101107.53;4977889;28;20037;-80
2022/08/21 00:30:22;;;;;;;18.40;4.15;;;16.60;99.90;;;15.57;100.00;101101.38;4959617;28;20025;-80
2022/08/21 00:32:50;;;;;;;16.08;3.90;;;16.60;99.90;;;15.54;100.00;101108.66;4940188;28;20091;-80
2022/08/21 00:35:20;;;;;;;11.88;4.28;;;16.50;99.90;;;15.52;100.00;101107.91;4989119;22;20331;-76
2022/08/21 00:37:46;;;;;;;14.63;3.78;;;16.50;99.90;;;15.53;100.00;101101.66;5013268;28;20036;-77
2022/08/21 00:40:19;;;;;;;22.02;4.25;;;16.50;99.90;;;15.53;100.00;101101.66;5005646;28;20041;-76
2022/08/21 00:42:46;;;;;;;13.30;3.80;;;16.50;99.90;;;15.50;100.00;101096.53;4999796;28;20047;-77
2022/08/21 00:45:12;;;;;;;20.48;3.92;;;16.50;99.90;;;15.48;100.00;101099.25;5008466;28;20033;-77
2022/08/21 00:47:38;;;;;;;22.17;4.03;;;16.50;99.90;;;15.44;100.00;101091.59;5006687;28;20131;-76
2022/08/21 00:50:07;;;;;;;15.88;3.92;;;16.50;99.90;;;15.41;100.00;101097.09;4999286;28;20409;-77
2022/08/21 00:52:35;;;;;;;17.20;4.05;;;16.40;99.90;;;15.37;100.00;101091.94;4987417;28;20052;-77
2022/08/21 00:55:05;;;;;;;16.08;3.65;;;16.40;99.90;;;15.36;100.00;101095.56;5007678;28;20037;-76
2022/08/21 00:57:54;;;;;;;13.95;3.85;;;16.40;99.90;;;15.35;100.00;101096.50;5006658;28;20038;-77
2022/08/21 01:00:30;;;;;;;16.40;4.10;;;16.40;99.90;;;15.30;100.00;101087.97;5005639;28;20047;-77
2022/08/21 01:02:58;;;;;;;;;;;16.30;99.90;;;15.19;100.00;101095.72;4979331;28;20044;-77
2022/08/21 01:05:24;;;;;;;16.88;3.38;;;16.30;99.90;;;15.15;100.00;101087.09;4988985;28;20301;-76
2022/08/21 01:07:51;;;;;;;16.60;3.83;;;16.20;99.90;;;15.13;100.00;101088.97;4965895;28;20029;-76
2022/08/21 01:10:18;;;;;;;20.27;3.53;;;16.20;99.90;;;15.10;100.00;101083.03;4981079;28;20482;-76
2022/08/21 01:12:44;;;;;;;15.63;3.90;;;16.10;99.90;;;15.03;100.00;101087.84;4983817;28;20037;-76
2022/08/21 01:15:14;;;;;;;14.85;4.03;;;16.10;99.90;;;15.03;100.00;101085.19;5004596;28;20045;-76
2022/08/21 01:17:40;;;;;;;22.52;4.22;;;16.10;99.90;;;15.02;100.00;101083.47;5006248;28;20472;-76
2022/08/21 01:20:10;;;;;;;17.67;4.18;;;16.10;99.90;;;15.02;100.00;101087.94;4999922;28;20037;-76
2022/08/21 01:22:36;;;;;;;14.98;3.80;;;16.00;99.90;;;14.98;100.00;101079.28;4975722;28;20053;-76
2022/08/21 01:25:07;;;;;;;19.05;4.18;;;16.00;99.90;;;14.99;100.00;101086.31;4983600;28;20040;-76
2022/08/21 01:27:33;;;;;;;14.48;4.55;;;16.00;99.90;;;14.98;100.00;101082.78;4997849;28;20132;-77
2022/08/21 01:30:14;;;;;;;23.02;4.50;;;16.00;99.90;;;14.92;100.00;101075.22;5010323;28;20110;-77
2022/08/21 01:32:40;;;;;;;25.20;4.20;;;15.90;99.90;;;14.87;100.00;101079.09;5010824;28;20042;-77
2022/08/21 01:35:11;;;;;;;20.45;4.38;;;15.90;99.90;;;14.85;100.00;101078.31;4984920;28;20040;-76
2022/08/21 01:37:37;;;;;;;29.40;4.72;;;15.80;99.90;;;14.76;100.00;101075.25;4980641;28;20037;-76
2022/08/21 01:40:05;;;;;;;17.08;3.78;;;15.80;99.90;;;14.75;100.00;101083.28;5003420;28;20529;-77
2022/08/21 01:42:31;;;;;;;18.08;4.35;;;15.80;99.90;;;14.70;100.00;101080.91;4999803;28;20136;-76
2022/08/21 01:44:57;;;;;;;26.60;3.63;;;15.70;99.90;;;14.67;100.00;101080.25;4991287;28;20117;-76
2022/08/21 01:47:23;;;;;;;15.85;3.92;;;15.70;99.90;;;14.61;100.00;101076.16;5000299;28;20029;-77
2022/08/21 01:49:49;;;;;;;17.75;3.65;;;15.60;99.90;;;14.59;100.00;101064.78;4993879;28;20041;-77
2022/08/21 01:52:16;;;;;;;14.40;4.32;;;15.60;99.90;;;14.57;100.00;101064.88;4989158;28;20038;-76
2022/08/21 01:54:42;;;;;;;17.60;4.80;;;15.60;99.90;;;14.54;100.00;101066.84;4984329;28;20064;-77
2022/08/21 01:57:08;;;;;;;15.00;4.32;;;15.50;99.90;;;14.50;100.00;101068.78;4974963;28;20068;-77
2022/08/21 01:59:34;;;;;;;12.32;4.43;;;15.50;99.90;;;14.48;100.00;101070.69;4991001;28;20083;-77
2022/08/21 02:02:00;;;;;;;17.05;4.63;;;15.50;99.90;;;14.46;100.00;101071.72;5001807;28;20124;-77
2022/08/21 02:04:26;;;;;;;19.13;4.85;;;15.50;99.90;;;14.38;100.00;101074.78;4992758;28;20414;-76
2022/08/21 02:06:52;;;;;;;27.48;4.78;;;15.40;99.90;;;14.40;100.00;101074.72;5008398;28;20038;-76
2022/08/21 02:09:19;;;;;;;16.23;4.28;;;15.40;99.90;;;14.37;100.00;101073.09;4995960;28;20038;-76
2022/08/21 02:11:44;;;;;;;16.02;3.90;;;15.40;99.90;;;14.31;100.00;101081.38;4987925;28;20072;-76
2022/08/21 02:14:14;;;;;;;16.05;4.15;;;15.40;99.90;;;14.32;100.00;101091.06;5008469;28;20486;-76
2022/08/21 02:16:43;;;;;;;21.33;5.05;;;15.40;99.90;;;14.35;100.00;101090.88;4984101;28;20464;-77
2022/08/21 02:19:10;;;;;;;26.90;6.45;;;15.40;99.90;;;14.37;100.00;101091.63;4974320;28;20658;-76
2022/08/21 02:21:36;;;;;;;15.20;4.63;;;15.40;99.90;;;14.41;100.00;101087.03;5001106;28;20163;-76
2022/08/21 02:24:03;;;;;;;12.32;4.53;;;15.40;99.90;;;14.39;100.00;101083.63;5007885;28;20695;-77
2022/08/21 02:26:28;;;;;;;13.00;4.15;;;15.40;99.90;;;14.33;100.00;101084.81;4996122;28;20061;-76
2022/08/21 02:28:54;;;;;;;12.88;4.05;;;15.40;99.90;;;14.32;100.00;101081.31;4997976;28;20049;-76
2022/08/21 02:31:20;;;;;;;17.27;4.47;;;15.30;99.90;;;14.32;100.00;101077.81;4998358;28;20030;-76
2022/08/21 02:33:46;;;;;;;17.42;4.00;;;15.40;99.90;;;14.35;100.00;101082.91;4991487;28;20037;-77
2022/08/21 02:36:13;;;;;;;19.15;4.20;;;15.40;99.90;;;14.32;100.00;101086.59;5008449;28;20038;-76
2022/08/21 02:38:41;;;;;;;17.33;4.20;;;15.40;99.90;;;14.33;100.00;101087.44;5007247;28;20056;-76
2022/08/21 02:41:16;;;;;;;14.27;4.38;;;15.40;99.90;;;14.36;100.00;101093.44;5009539;28;20037;-76
2022/08/21 02:43:42;;;;;;;21.98;5.00;;;15.40;99.90;;;14.38;100.00;101089.84;4988682;28;20038;-77
2022/08/21 02:46:11;;;;;;;15.77;4.18;;;15.40;99.90;;;14.39;100.00;101091.56;5009106;28;20037;-76
2022/08/21 02:48:38;;;;;;;18.30;5.28;;;15.40;99.90;;;14.40;100.00;101094.09;5010988;28;20397;-76
2022/08/21 02:51:10;;;;;;;16.42;5.20;;;15.40;99.90;;;14.38;100.00;101090.69;5009457;28;20498;-76
2022/08/21 02:53:36;;;;;;;16.67;5.25;;;15.40;99.90;;;14.39;100.00;101097.72;5010520;28;20049;-76
2022/08/21 02:56:08;;;;;;;24.15;5.38;;;15.40;99.90;;;14.42;100.00;101100.16;4995227;28;20051;-76
2022/08/21 02:58:40;;;;;;;25.08;4.90;;;15.40;99.90;;;14.39;100.00;101102.16;5008438;28;20046;-76
2022/08/21 03:01:09;;;;;;;21.67;5.25;;;15.50;99.90;;;14.43;100.00;101104.53;5000722;28;20109;-76
2022/08/21 03:03:37;;;;;;;17.45;5.05;;;15.40;99.90;;;14.47;100.00;101103.44;5014064;28;20422;-76
2022/08/21 03:06:05;;;;;;;17.55;4.10;;;15.40;99.90;;;14.50;100.00;101097.94;5010823;28;20030;-76
2022/08/21 03:08:31;;;;;;;16.35;4.57;;;15.50;99.90;;;14.51;100.00;101098.78;5014012;28;20175;-76
2022/08/21 03:10:59;;;;;;;15.30;4.63;;;15.50;99.90;;;14.54;100.00;101106.56;5014138;28;20613;-76
2022/08/21 03:13:25;;;;;;;15.35;4.85;;;15.50;99.90;;;14.53;100.00;101097.75;4986533;28;20122;-76
2022/08/21 03:15:51;;;;;;;21.98;4.97;;;15.60;99.90;;;14.55;100.00;101093.25;5005489;28;20128;-76
2022/08/21 03:18:19;;;;;;;11.70;4.80;;;15.60;99.90;;;14.55;100.00;101089.75;4981506;28;20033;-76
2022/08/21 03:20:46;;;;;;;19.48;4.55;;;15.60;99.90;;;14.53;100.00;101091.59;5005372;28;20045;-76
2022/08/21 03:23:13;;;;;;;22.88;4.75;;;15.60;99.90;;;14.50;100.00;101100.59;5001274;28;20577;-76
2022/08/21 03:25:40;;;;;;;18.27;5.00;;;15.60;99.90;;;14.49;100.00;101103.31;4954892;28;20068;-77
2022/08/21 03:28:14;;;;;;;18.45;4.30;;;15.60;99.90;;;14.47;100.00;101100.78;4976656;28;20033;-76
2022/08/21 03:30:46;;;;;;;20.58;4.22;;;15.50;99.90;;;14.44;100.00;101106.22;5007591;28;20116;-76
2022/08/21 03:33:14;;;;;;;20.23;4.50;;;15.60;99.90;;;14.46;100.00;101109.66;4980981;28;20038;-77
2022/08/21 03:35:43;;;;;;;16.08;4.28;;;15.60;99.90;;;14.51;100.00;101106.75;5004671;28;20041;-76
2022/08/21 03:38:09;;;;;;;19.05;4.43;;;15.60;99.90;;;14.52;100.00;101113.75;4977018;28;20564;-77
2022/08/21 03:40:35;;;;;;;17.70;4.53;;;15.60;99.90;;;14.54;100.00;101110.06;5007689;28;20465;-76
2022/08/21 03:43:01;;;;;;;24.25;5.25;;;15.60;99.90;;;14.57;100.00;101112.56;4981563;28;20041;-76
2022/08/21 03:45:27;;;;;;;;;;;15.60;99.90;;;14.54;100.00;101109.22;4981443;28;20053;-76
2022/08/21 03:48:02;;;;;;;14.10;4.23;;;15.60;99.90;;;14.56;100.00;101105.56;4999739;28;19925;-76
2022/08/21 03:50:32;;;;;;;14.90;4.20;;;15.60;99.90;;;14.61;100.00;101110.59;4998990;28;20334;-76
2022/08/21 03:52:58;;;;;;;16.38;4.50;;;15.70;99.90;;;14.65;100.00;101106.84;5008594;28;20022;-76
2022/08/21 03:55:25;;;;;;;11.60;4.10;;;15.70;99.90;;;14.66;100.00;101097.09;4998016;28;20120;-76
2022/08/21 03:57:51;;;;;;;24.27;4.88;;;15.70;99.90;;;14.68;100.00;101105.81;5007639;28;20025;-76
2022/08/21 04:00:19;;;;;;;13.38;4.70;;;15.70;99.90;;;14.71;100.00;101106.50;5007982;28;20128;-76
2022/08/21 04:02:46;;;;;;;16.13;4.95;;;15.70;99.90;;;14.75;100.00;101107.16;4971385;28;20433;-77
2022/08/21 04:05:26;;;;;;;23.27;5.00;;;15.80;99.90;;;14.75;100.00;101108.03;5008819;28;20113;-76
2022/08/21 04:08:00;;;;;;;21.15;5.18;;;15.70;99.90;;;14.74;100.00;101110.75;4961646;28;20112;-76
2022/08/21 04:10:28;;;;;;;29.58;5.10;;;15.70;99.90;;;14.72;100.00;101113.50;5009864;28;20061;-77
2022/08/21 04:12:55;;;;;;;21.02;5.05;;;15.70;99.90;;;14.74;100.00;101108.09;5006352;28;20041;-76
2022/08/21 04:15:23;;;;;;;17.85;4.88;;;15.70;99.90;;;14.76;100.00;101111.53;5009564;28;20045;-76
2022/08/21 04:17:49;;;;;;;23.23;5.35;;;15.70;99.90;;;14.80;100.00;101112.22;4986244;28;20063;-76
2022/08/21 04:20:17;;;;;;;17.35;4.80;;;15.80;99.90;;;14.84;100.00;101111.94;4992782;28;20049;-76
2022/08/21 04:22:44;;;;;;;13.60;4.30;;;15.80;99.90;;;14.87;100.00;101114.41;4981237;28;20041;-77
2022/08/21 04:25:11;;;;;;;18.85;4.70;;;15.80;99.90;;;14.92;100.00;101124.72;5002207;28;20037;-76
2022/08/21 04:27:37;;;;;;;15.90;4.68;;;15.90;99.90;;;14.97;100.00;101128.84;4998818;28;20045;-76
2022/08/21 04:30:04;;;;;;;15.68;4.78;;;15.90;99.90;;;15.04;100.00;101125.81;5006330;28;20053;-77
2022/08/21 04:32:30;;;;;;;20.40;5.03;;;16.00;99.90;;;15.08;100.00;101127.34;5003246;28;20038;-76
2022/08/21 04:35:03;;;;;;;18.08;4.28;;;16.00;99.90;;;15.15;100.00;101131.34;5008488;28;20038;-76
2022/08/21 04:37:32;;;;;;;20.00;4.63;;;16.10;99.90;;;15.19;100.00;101146.13;4982004;28;20037;-76
2022/08/21 04:39:58;;;;;;;16.77;4.85;;;16.10;99.90;;;15.23;100.00;101133.56;4987025;28;20046;-76
2022/08/21 04:42:27;;;;;;;18.77;4.72;;;16.10;99.90;;;15.28;100.00;101136.78;5008103;28;20103;-76
2022/08/21 04:44:56;;;;;;;17.58;4.43;;;16.20;99.90;;;15.38;100.00;101138.78;4985125;28;20033;-77
2022/08/21 04:47:23;;;;;;;16.65;4.90;;;16.30;99.90;;;15.55;100.00;101140.41;5022213;28;20029;-76
2022/08/21 04:49:49;;;;;;;19.88;5.13;;;16.40;99.90;;;15.65;100.00;101138.03;4968740;28;20041;-77
2022/08/21 04:52:21;;;;;;;14.85;4.70;;;16.50;99.90;;;15.75;100.00;101133.06;4990347;28;20046;-76
2022/08/21 04:54:51;;;;;;;18.13;4.88;;;16.60;99.90;;;15.89;100.00;101140.16;4990173;28;20052;-76
2022/08/21 04:57:17;;;;;;;18.23;4.60;;;16.70;99.90;;;15.96;100.00;101137.03;4997131;28;20052;-77
2022/08/21 04:59:48;;;;;;;20.58;4.22;;;16.70;99.90;;;16.07;100.00;101140.81;5009277;28;20030;-76
2022/08/21 05:02:14;;;;;;;18.17;4.10;;;16.80;99.90;;;16.18;100.00;101141.84;4992204;28;20034;-76
2022/08/21 05:04:53;;;;;;;13.43;3.45;;;16.90;99.90;;;16.27;100.00;101143.06;4998160;28;20048;-77
2022/08/21 05:07:25;;;;;;;13.70;4.10;;;17.10;99.90;;;16.44;100.00;101144.63;4985868;28;22991;-77
2022/08/21 05:09:51;;;;;;;17.17;4.05;;;17.20;99.90;;;16.66;100.00;101145.91;4996912;28;20162;-76
2022/08/21 05:12:18;;;;;;;14.02;3.38;;;17.30;99.90;;;16.89;100.00;101137.28;5013122;28;20041;-76
2022/08/21 05:14:44;;;;;;;18.90;4.13;;;17.60;99.90;;;17.35;100.00;101141.31;4999027;28;20034;-76
2022/08/21 05:17:10;;;;;;;13.98;3.22;;;17.90;99.90;;;17.91;100.00;101146.34;4973779;28;20612;-76
2022/08/21 05:19:36;;;;;;;14.35;3.47;;;18.20;99.90;;;18.43;100.00;101145.25;5008946;28;20049;-77
2022/08/21 05:22:05;;;;;;;16.23;3.40;;;18.50;99.90;;;19.11;100.00;101153.59;4991453;28;20034;-76
2022/08/21 05:24:32;;;;;;;12.35;3.05;;;19.00;99.90;;;19.75;99.45;101151.31;5012747;28;20782;-76
2022/08/21 05:26:58;;;;;;;9.48;3.35;;;19.40;99.90;;;20.03;95.93;101157.16;5000875;28;20080;-76
2022/08/21 05:29:24;;;;;;;14.65;2.97;;;19.70;99.90;;;20.07;94.76;101148.78;5004663;28;20087;-76
2022/08/21 05:31:50;;;;;;;8.98;2.95;;;19.90;99.90;;;20.09;94.45;101159.34;5001929;28;20095;-76
2022/08/21 05:34:23;;;;;;;13.07;2.70;;;19.90;99.90;;;20.05;93.84;101157.91;4969126;28;20076;-76
2022/08/21 05:36:48;;;;;;;12.30;2.80;;;19.90;99.90;;;19.95;94.89;101156.91;4982392;28;20172;-76
2022/08/21 05:39:15;;;;;;;14.85;3.40;;;19.90;99.90;;;19.81;95.27;101158.03;4980599;28;20085;-77
2022/08/21 05:41:41;;;;;;;14.73;2.55;;;19.90;99.90;;;19.31;98.41;101170.75;4971788;28;20034;-76
2022/08/21 05:44:07;;;;;;;10.77;2.63;;;19.70;99.90;;;18.90;100.00;101156.94;4983170;28;20035;-76
2022/08/21 05:46:35;;;;;;;11.77;3.00;;;19.50;99.90;;;18.55;100.00;101163.03;5006574;28;20042;-76
2022/08/21 05:49:03;;;;;;;11.65;2.70;;;19.40;99.90;;;18.40;100.00;101166.78;4963627;28;20049;-77
2022/08/21 05:51:29;;;;;;;9.57;2.58;;;19.20;99.90;;;18.37;100.00;101170.53;4987898;28;20045;-76
2022/08/21 05:53:55;;;;;;;11.43;2.50;;;19.20;99.90;;;18.32;100.00;101166.53;5004113;28;20083;-76
2022/08/21 05:56:21;;;;;;;17.58;3.25;;;19.10;99.90;;;18.28;100.00;101162.38;5016522;28;20029;-76
2022/08/21 05:58:47;;;;;;;10.23;2.40;;;19.10;99.90;;;18.24;100.00;101169.72;4997266;28;20049;-77
2022/08/21 06:01:14;;;;;;;14.88;2.83;;;19.10;99.90;;;18.28;100.00;101170.38;4982428;28;20034;-77
2022/08/21 06:03:41;;;;;;;14.65;2.83;;;19.10;99.90;;;18.38;100.00;101168.72;4976393;28;20044;-77
2022/08/21 06:06:07;;;;;;;18.88;2.53;;;19.10;99.90;;;18.55;100.00;101170.16;4988075;28;20167;-76
2022/08/21 06:08:33;;;;;;;11.32;2.30;;;19.20;99.90;;;18.65;100.00;101161.38;4999495;28;20482;-76
2022/08/21 06:11:00;;;;;;;24.15;3.03;;;19.40;99.90;;;18.82;100.00;101161.97;4999511;28;20529;-76
2022/08/21 06:13:27;;;;;;;11.30;2.10;;;19.40;99.90;;;18.91;100.00;101176.44;5005392;28;20061;-77
2022/08/21 06:16:13;;;;;;;15.35;2.50;;;19.50;99.90;;;19.01;100.00;101174.81;4994182;28;20054;-76
2022/08/21 06:18:39;;;;;;;11.77;2.40;;;19.60;99.90;;;19.19;100.00;101178.75;5018709;28;20446;-76
2022/08/21 06:21:06;;;;;;;12.70;2.55;;;19.80;99.90;;;19.21;100.00;101175.97;4977511;28;20044;-77
2022/08/21 06:23:34;;;;;;;15.85;2.80;;;19.80;99.90;;;19.27;100.00;101180.84;5008649;28;20069;-77
2022/08/21 06:26:02;;;;;;;10.48;2.17;;;19.90;99.90;;;19.38;100.00;101188.03;4976002;28;20533;-76
2022/08/21 06:28:28;;;;;;;9.40;1.98;;;20.00;99.90;;;19.62;100.00;101182.63;4996628;28;20511;-76
2022/08/21 06:30:54;;;;;;;7.30;2.00;;;20.20;99.90;;;19.74;100.00;101183.50;4967231;28;20048;-76
2022/08/21 06:33:19;;;;;;;;;;;20.90;99.90;;;19.73;95.92;101181.81;5026068;28;20041;-76
2022/08/21 06:35:45;;;;;;;9.55;1.58;;;20.30;99.90;;;19.83;94.64;101183.66;5001833;28;19938;-76
2022/08/21 06:38:11;;;;;;;;;;;20.30;99.90;;;19.77;91.08;101172.59;5008825;28;20033;-76
2022/08/21 06:40:39;;;;;;;10.20;1.50;;;20.50;99.90;;;20.22;92.58;101186.81;5000327;28;20280;-76
2022/08/21 06:43:14;;;;;;;6.72;1.50;;;20.60;99.90;;;20.51;87.41;101188.09;5010859;28;20041;-76
2022/08/21 06:45:40;;;;;;;6.55;2.35;;;20.90;99.90;;;20.82;85.02;101186.44;5008394;28;20040;-76
2022/08/21 06:48:11;;;;;;;7.85;1.23;;;21.00;99.90;;;21.02;84.61;101177.63;4994360;28;20172;-76
2022/08/21 06:50:37;;;;;;;6.28;1.50;;;21.30;99.90;;;21.12;83.38;101182.19;5007245;28;20045;-76
2022/08/21 06:53:09;;;;;;;7.70;1.55;;;21.40;99.90;;;21.24;81.91;101190.06;4992365;28;20042;-76
2022/08/21 06:55:38;;;;;;;7.38;1.55;;;21.60;99.90;;;21.31;81.40;101185.03;5001352;28;20044;-76
2022/08/21 06:58:05;;;;;;;6.50;1.27;;;21.60;99.90;;;21.26;80.75;101189.94;5008679;28;20045;-76
2022/08/21 07:00:32;;;;;;;10.55;1.60;;;21.60;99.90;;;21.03;80.25;101182.00;4983254;28;20093;-76
2022/08/21 07:02:58;;;;;;;5.88;1.40;;;21.50;99.90;;;20.98;80.68;101186.03;4990251;28;20116;-76
2022/08/21 07:05:32;;;;;;;9.40;1.38;;;21.50;99.90;;;21.26;80.19;101197.97;5008072;28;20037;-77
2022/08/21 07:07:59;;;;;;;7.53;1.20;;;21.70;99.90;;;21.58;77.88;101194.41;4998378;28;20037;-76
2022/08/21 07:10:26;;;;;;;8.02;1.38;;;21.90;99.90;;;21.93;76.67;101199.41;4977918;28;20034;-76
2022/08/21 07:12:53;;;;;;;6.22;1.30;;;22.20;99.90;;;22.29;75.61;101194.50;4993669;28;20047;-76
2022/08/21 07:15:19;;;;;;;9.32;1.48;;;22.60;99.90;;;22.86;74.13;101200.13;4982648;28;20037;-76
2022/08/21 07:17:45;;;;;;;5.78;1.25;;;22.90;99.90;;;22.98;71.70;101196.31;4980648;28;20034;-76
2022/08/21 07:20:13;;;;;;;5.20;1.00;;;23.10;99.90;;;22.98;71.60;101195.44;4994849;28;20706;-77
2022/08/21 07:22:40;;;;;;;11.38;1.80;;;23.20;99.90;;;22.97;72.20;101191.09;4997001;28;20048;-76
2022/08/21 07:25:08;;;;;;;7.07;1.42;;;23.30;99.90;;;23.24;70.99;101191.25;5008777;28;20041;-76
2022/08/21 07:27:33;;;;;;;6.82;1.52;;;23.40;99.90;;;23.18;69.75;101186.44;4988985;28;20501;-76
2022/08/21 07:29:59;;;;;;;10.85;1.23;;;23.70;99.90;;;23.80;69.00;101186.94;5011457;28;20065;-76
2022/08/21 07:32:25;;;;;;;7.13;1.52;;;24.00;99.90;;;24.05;68.00;101187.25;4984963;28;20042;-76
2022/08/21 07:34:53;;;;;;;8.10;1.40;;;24.40;99.90;;;24.53;66.97;101199.63;5010373;28;20820;-76
2022/08/21 07:37:19;;;;;;;4.85;1.38;;;24.60;99.90;;;24.25;65.92;101188.84;4998933;28;20103;-76
2022/08/21 07:39:48;;;;;;;5.55;1.50;;;24.70;99.90;;;24.41;66.18;101193.59;5009906;28;20029;-76
2022/08/21 07:42:15;;;;;;;4.68;1.20;;;24.70;99.90;;;24.20;66.27;101191.16;5000143;28;20033;-75
2022/08/21 07:44:41;;;;;;;6.07;1.30;;;24.80;99.90;;;24.51;66.30;101185.47;5001534;28;20037;-76
2022/08/21 07:47:09;;;;;;;6.93;1.65;;;24.90;99.90;;;24.46;66.22;101193.13;5006321;28;20044;-76
2022/08/21 07:49:35;;;;;;;6.13;1.30;;;24.60;99.90;;;23.71;67.61;101185.06;5021684;28;20037;-76
2022/08/21 07:52:01;;;;;;;9.15;1.63;;;24.20;99.90;;;23.23;69.62;101191.38;4991369;28;20125;-76
2022/08/21 07:54:27;;;;;;;9.65;2.03;;;23.80;99.90;;;22.72;71.31;101185.25;5009552;28;20121;-76
2022/08/21 07:56:53;;;;;;;6.45;1.33;;;23.60;99.90;;;22.64;72.08;101182.44;5009749;28;20504;-76
2022/08/21 07:59:18;;;;;;;5.95;1.45;;;23.30;99.90;;;22.41;72.90;101188.03;5007725;28;20049;-76
2022/08/21 08:01:47;;;;;;;11.20;1.80;;;23.20;99.90;;;22.60;73.34;101195.28;4989404;28;20048;-76
2022/08/21 08:04:15;;;;;;;9.20;1.52;;;23.20;99.90;;;22.81;74.03;101194.34;4991200;28;20034;-76
2022/08/21 08:06:41;;;;;;;10.75;1.58;;;23.40;99.90;;;23.18;72.54;101186.44;4990021;28;20417;-76
2022/08/21 08:09:07;;;;;;;10.75;1.40;;;23.70;99.90;;;23.60;70.11;101191.47;4989801;28;20032;-76
2022/08/21 08:11:33;;;;;;;8.75;1.20;;;23.90;99.90;;;23.40;69.71;101190.66;4990799;28;20512;-76
2022/08/21 08:13:59;;;;;;;4.95;1.35;;;23.80;99.90;;;23.17;70.72;101191.94;5002465;28;20437;-77
2022/08/21 08:16:26;;;;;;;5.22;1.30;;;23.70;99.90;;;23.12;70.04;101192.38;5008821;28;20021;-75
2022/08/21 08:18:52;;;;;;;10.13;1.85;;;23.60;99.90;;;22.94;69.58;101201.13;4979937;28;20482;-76
2022/08/21 08:21:20;;;;;;;10.27;2.15;;;23.60;99.90;;;23.13;70.76;101200.31;5002098;28;20033;-76
2022/08/21 08:23:47;;;;;;;7.50;1.40;;;23.60;99.90;;;23.13;70.71;101197.63;4994681;28;20460;-76
2022/08/21 08:26:13;;;;;;;7.78;1.58;;;23.60;99.90;;;23.11;71.52;101196.06;4982644;28;20065;-76
2022/08/21 08:28:39;;;;;;;5.88;1.25;;;23.60;99.90;;;23.00;71.34;101196.16;5007882;28;20506;-76
2022/08/21 08:31:05;;;;;;;12.35;1.83;;;23.50;99.90;;;22.86;71.45;101208.16;4990930;28;20040;-76
2022/08/21 08:33:31;;;;;;;6.60;1.40;;;23.40;99.90;;;22.73;71.44;101208.44;5000475;28;20128;-76
2022/08/21 08:35:56;;;;;;;7.85;1.60;;;23.40;99.90;;;22.59;71.80;101215.06;5001426;28;20428;-76
2022/08/21 08:38:24;;;;;;;8.98;1.65;;;23.20;99.90;;;22.49;72.98;101206.13;4995251;28;20025;-76
2022/08/21 08:41:17;;;;;;;8.32;1.52;;;23.10;99.90;;;22.38;73.30;101204.41;4982554;28;20038;-76
2022/08/21 08:43:51;;;;;;;4.28;1.30;;;23.10;99.90;;;22.69;72.70;101213.22;4990143;28;20534;-77
2022/08/21 08:46:35;;;;;;;8.32;1.77;;;23.40;99.90;;;23.37;71.12;101212.47;5001467;28;20046;-77
2022/08/21 08:49:26;;;;;;;8.18;1.50;;;23.90;99.90;;;24.08;69.55;101216.53;4996239;28;20490;-77
2022/08/21 08:52:13;;;;;;;8.05;1.77;;;24.40;99.90;;;24.36;67.42;101212.88;4980296;28;20498;-76
2022/08/21 08:54:58;;;;;;;5.22;1.30;;;24.70;99.90;;;24.61;66.42;101212.34;4987600;28;20030;-76
2022/08/21 08:57:24;;;;;;;7.65;1.98;;;24.90;99.90;;;24.73;64.77;101205.72;4998387;28;20061;-76
2022/08/21 08:59:55;;;;;;;7.55;1.73;;;24.80;99.90;;;24.33;64.01;101210.47;4990167;28;20048;-76
2022/08/21 09:02:27;;;;;;;10.30;1.48;;;24.80;99.90;;;24.46;66.44;101217.34;5001162;28;20128;-77
2022/08/21 09:04:55;;;;;;;7.13;1.58;;;24.80;99.90;;;24.37;67.52;101216.41;4988962;28;20984;-76
2022/08/21 09:07:45;;;;;;;8.25;1.60;;;24.90;99.90;;;24.53;65.61;101216.63;4999479;28;20030;-76
2022/08/21 09:10:29;;;;;;;6.15;1.50;;;25.00;99.90;;;24.74;65.81;101216.34;5007943;28;20041;-76
2022/08/21 09:13:51;;;;;;;10.35;1.80;;;25.00;99.90;;;24.66;65.64;101215.41;4963474;28;20030;-77
2022/08/21 09:16:54;;;;;;;8.05;1.60;;;25.20;99.90;;;24.93;66.50;101215.38;4972859;28;20042;-77
2022/08/21 09:19:35;;;;;;;5.88;1.60;;;25.20;99.90;;;24.60;64.45;101218.72;5015316;28;20037;-78
2022/08/21 09:22:47;;;;;;;8.40;1.60;;;25.30;99.90;;;24.84;62.26;101221.69;5003984;28;20049;-76
2022/08/21 09:25:32;;;;;;;6.72;1.55;;;25.40;99.90;;;25.10;63.21;101215.53;4993630;28;20506;-77
2022/08/21 09:27:58;;;;;;;7.28;1.65;;;25.50;99.90;;;25.02;64.08;101216.31;4980213;28;20033;-77
2022/08/21 09:30:32;;;;;;;7.20;1.40;;;25.30;99.90;;;24.68;64.80;101229.59;4999137;28;20109;-77
2022/08/21 09:32:59;;;;;;;5.80;1.60;;;25.30;99.90;;;24.79;64.27;101228.53;5004281;28;20057;-77
2022/08/21 09:35:26;;;;;;;7.03;1.95;;;25.40;99.90;;;24.92;63.25;101226.28;4994528;28;20092;-77
2022/08/21 09:38:07;;;;;;;9.63;1.60;;;25.40;99.90;;;25.04;63.73;101222.38;4998861;28;20088;-76
2022/08/21 09:40:47;;;;;;;6.95;1.20;;;25.50;99.90;;;25.29;63.05;101218.09;5000132;28;20038;-77
2022/08/21 09:43:24;;;;;;;6.47;1.50;;;25.60;99.90;;;25.19;61.37;101214.59;4998748;28;20115;-77
2022/08/21 09:46:04;;;;;;;5.80;1.55;;;25.60;99.90;;;25.12;61.46;101210.84;4982831;28;20029;-76
2022/08/21 09:48:59;;;;;;;7.05;1.67;;;25.60;99.90;;;25.27;60.71;101208.44;5011335;28;20112;-76
2022/08/21 09:51:49;;;;;;;8.10;1.35;;;25.80;99.90;;;25.43;61.94;101211.28;4986948;28;20410;-77
2022/08/21 09:54:18;;;;;;;9.63;1.30;;;25.80;99.90;;;25.29;57.54;101196.53;4995687;28;20040;-77
2022/08/21 10:00:30;;;;;;;7.03;1.70;;;25.70;99.90;;;25.16;57.66;101205.00;5019276;28;20405;-77
2022/08/21 10:03:14;;;;;;;3.70;1.08;;;25.70;99.90;;;25.02;57.31;101210.06;4999654;28;20036;-77
2022/08/21 10:05:52;;;;;;;7.28;1.52;;;25.70;99.90;;;25.15;56.14;101213.22;4984411;28;20402;-76
2022/08/21 10:08:21;;;;;;;6.50;1.10;;;25.60;98.30;;;24.98;54.12;101210.38;4993563;28;20038;-76
2022/08/21 10:11:04;;;;;;;4.85;1.13;;;25.60;99.10;;;24.98;54.06;101217.59;5014946;28;20449;-77
2022/08/21 10:13:40;;;;;;;5.70;1.48;;;25.50;99.80;;;25.02;55.48;101210.91;4982274;28;20514;-76
2022/08/21 10:16:22;;;;;;;;;;;25.50;99.90;;;24.83;54.28;101221.84;5000908;28;20117;-77
2022/08/21 10:19:21;;;;;;;8.40;1.40;;;25.50;97.10;;;24.82;51.81;101222.84;5013450;28;20014;-77